Time;durP1;ratioP1;P1;durP2;ratioP2;P2;SDS_P1;SDS_P2;PMS_P1;PMS_P2;Temp;Humidity;BMP_temperature;BMP_pressure;BME280_temperature;BME280_humidity;BME280_pressure;Samples;Min_cycle;Max_cycle;Signal;HPM_P1;HPM_P2
2022/06/06 00:00:05;;;;;;;39.80;15.13;;;14.60;99.90;;;;;;5015655;28;20029;-71
2022/06/06 00:02:32;;;;;;;39.53;13.80;;;14.60;99.90;;;;;;5018741;28;20445;-69
2022/06/06 00:04:58;;;;;;;38.35;14.55;;;14.60;99.90;;;;;;5035196;28;20032;-67
2022/06/06 00:07:25;;;;;;;43.10;16.77;;;14.60;99.90;;;;;;5035133;28;20021;-70
2022/06/06 00:09:52;;;;;;;33.83;13.90;;;14.50;99.90;;;;;;5035045;28;20100;-67
2022/06/06 00:12:20;;;;;;;40.92;14.35;;;14.50;99.90;;;;;;5020037;28;20526;-67
2022/06/06 00:14:46;;;;;;;39.88;16.50;;;14.40;99.90;;;;;;5018644;28;20108;-69
2022/06/06 00:17:13;;;;;;;34.58;14.00;;;14.40;99.90;;;;;;5044951;28;20224;-68
2022/06/06 00:19:40;;;;;;;42.78;14.80;;;14.50;99.90;;;;;;5034921;28;20018;-67
2022/06/06 00:22:06;;;;;;;39.83;14.10;;;14.50;99.90;;;;;;5035053;28;20104;-68
2022/06/06 00:24:32;;;;;;;36.35;13.55;;;14.50;99.90;;;;;;5034670;28;20105;-67
2022/06/06 00:26:59;;;;;;;41.90;15.05;;;14.50;99.90;;;;;;5034518;28;20190;-70
2022/06/06 00:29:27;;;;;;;37.60;13.30;;;14.50;99.90;;;;;;5018854;28;20021;-68
2022/06/06 00:34:48;;;;;;;30.38;12.63;;;14.50;99.90;;;;;;5029463;28;20110;-67
2022/06/06 00:37:17;;;;;;;30.65;11.45;;;14.50;99.90;;;;;;5034517;28;20436;-69
2022/06/06 00:39:43;;;;;;;28.90;10.07;;;14.50;99.90;;;;;;5034690;28;20037;-69
2022/06/06 00:42:33;;;;;;;26.77;9.55;;;14.50;99.90;;;;;;5034471;28;20030;-70
2022/06/06 00:45:21;;;;;;;29.35;9.70;;;14.50;99.90;;;;;;5030786;28;20477;-67
2022/06/06 00:47:52;;;;;;;23.70;9.43;;;14.50;99.90;;;;;;5034053;28;20026;-66
2022/06/06 00:50:38;;;;;;;28.27;9.93;;;14.50;99.90;;;;;;5034255;28;20029;-68
2022/06/06 00:53:06;;;;;;;29.23;11.20;;;14.50;99.90;;;;;;5034342;28;20040;-66
2022/06/06 00:55:46;;;;;;;28.35;9.20;;;14.50;99.90;;;;;;5033951;28;20025;-68
2022/06/06 00:58:19;;;;;;;25.88;9.60;;;14.50;99.90;;;;;;5034042;28;20025;-70
2022/06/06 01:00:46;;;;;;;27.60;8.88;;;14.60;99.90;;;;;;5023520;28;20026;-69
2022/06/06 01:03:15;;;;;;;23.15;7.97;;;14.60;99.90;;;;;;5028821;28;20120;-66
2022/06/06 01:05:43;;;;;;;23.80;8.50;;;14.70;99.90;;;;;;5022647;28;20028;-71
2022/06/06 01:08:10;;;;;;;27.17;8.43;;;14.70;99.90;;;;;;5031801;28;20045;-69
2022/06/06 01:10:35;;;;;;;23.92;8.60;;;14.70;99.90;;;;;;5026123;28;20071;-68
2022/06/06 01:13:04;;;;;;;24.83;10.00;;;14.70;99.90;;;;;;5033046;28;20046;-67
2022/06/06 01:16:00;;;;;;;26.33;9.40;;;14.70;99.90;;;;;;5033704;28;20056;-67
2022/06/06 01:19:17;;;;;;;28.75;8.60;;;14.70;99.90;;;;;;5039842;28;20021;-66
2022/06/06 01:22:05;;;;;;;27.10;7.63;;;14.60;99.90;;;;;;5028891;28;20168;-69
2022/06/06 01:24:45;;;;;;;27.98;9.10;;;14.60;99.90;;;;;;5053436;28;20021;-69
2022/06/06 01:27:23;;;;;;;23.58;9.60;;;14.60;99.90;;;;;;5054026;28;20115;-66
2022/06/06 01:29:56;;;;;;;26.10;8.93;;;14.60;99.90;;;;;;5053193;28;20021;-67
2022/06/06 01:32:23;;;;;;;22.73;8.75;;;14.60;99.90;;;;;;5053021;28;20040;-68
2022/06/06 01:34:54;;;;;;;23.80;7.82;;;14.60;99.90;;;;;;5052103;28;20025;-68
2022/06/06 01:37:28;;;;;;;23.42;7.88;;;14.60;99.90;;;;;;5052206;28;20017;-67
2022/06/06 01:39:57;;;;;;;25.25;7.70;;;14.70;99.90;;;;;;5043050;28;20028;-67
2022/06/06 01:42:34;;;;;;;25.55;8.45;;;14.70;99.90;;;;;;5022778;28;20021;-68
2022/06/06 01:45:07;;;;;;;24.67;7.90;;;14.60;99.90;;;;;;5033162;28;20158;-70
2022/06/06 01:47:41;;;;;;;22.77;8.25;;;14.60;99.90;;;;;;5021758;28;20022;-68
2022/06/06 01:50:09;;;;;;;20.63;6.75;;;14.50;99.90;;;;;;5032725;28;20025;-67
2022/06/06 01:53:06;;;;;;;22.55;7.03;;;14.50;99.90;;;;;;5033859;28;20139;-68
2022/06/06 01:55:34;;;;;;;22.25;8.13;;;14.50;99.90;;;;;;5037662;28;20041;-67
2022/06/06 01:58:06;;;;;;;20.67;6.82;;;14.40;99.90;;;;;;5041224;28;20048;-68
2022/06/06 02:00:34;;;;;;;20.45;6.85;;;14.40;99.90;;;;;;5040953;28;20024;-68
2022/06/06 02:03:00;;;;;;;20.25;6.40;;;14.40;99.90;;;;;;5042183;28;20029;-69
2022/06/06 02:05:27;;;;;;;19.40;6.95;;;14.50;99.90;;;;;;5041045;28;20032;-72
2022/06/06 02:07:57;;;;;;;21.63;7.10;;;14.40;99.90;;;;;;5042047;28;20013;-68
2022/06/06 02:10:28;;;;;;;19.75;7.20;;;14.40;99.90;;;;;;5039108;28;20361;-70
2022/06/06 02:12:54;;;;;;;17.83;6.70;;;14.40;99.90;;;;;;5041549;28;20024;-70
2022/06/06 02:15:24;;;;;;;21.55;7.32;;;14.40;99.90;;;;;;5042259;28;20560;-70
2022/06/06 02:17:52;;;;;;;21.13;7.80;;;14.40;99.90;;;;;;5038782;28;20022;-70
2022/06/06 02:20:21;;;;;;;19.65;6.78;;;14.40;99.90;;;;;;5041100;28;20082;-70
2022/06/06 02:22:47;;;;;;;23.40;7.22;;;14.30;99.90;;;;;;5037485;28;20021;-69
2022/06/06 02:25:14;;;;;;;20.50;7.30;;;14.30;99.90;;;;;;5041640;28;20018;-68
2022/06/06 02:27:41;;;;;;;21.63;7.10;;;14.30;99.90;;;;;;5039617;28;20032;-70
2022/06/06 02:30:12;;;;;;;19.30;7.70;;;14.30;99.90;;;;;;5026637;28;20041;-68
2022/06/06 02:32:37;;;;;;;18.38;7.32;;;14.30;99.90;;;;;;5029875;28;20037;-67
2022/06/06 02:35:03;;;;;;;25.98;8.27;;;14.30;99.90;;;;;;5030347;28;20048;-67
2022/06/06 02:37:29;;;;;;;24.10;8.23;;;14.30;99.90;;;;;;5032396;28;20315;-67
2022/06/06 02:39:55;;;;;;;26.90;8.40;;;14.40;99.90;;;;;;5031998;28;20030;-67
2022/06/06 02:42:21;;;;;;;22.77;9.25;;;14.40;99.90;;;;;;5015446;28;20478;-67
2022/06/06 02:44:48;;;;;;;24.73;7.55;;;14.40;99.90;;;;;;5011822;28;20017;-68
2022/06/06 02:47:14;;;;;;;21.95;8.20;;;14.40;99.90;;;;;;5016921;28;20038;-69
2022/06/06 02:49:40;;;;;;;27.73;8.20;;;14.40;99.90;;;;;;5017921;28;20034;-67
2022/06/06 02:52:06;;;;;;;21.92;8.00;;;14.30;99.90;;;;;;5030764;28;20461;-70
2022/06/06 02:54:32;;;;;;;21.13;7.00;;;14.30;99.90;;;;;;5027147;28;20030;-71
2022/06/06 02:56:59;;;;;;;23.38;8.43;;;14.30;99.90;;;;;;5025617;28;20432;-68
2022/06/06 02:59:26;;;;;;;23.55;8.20;;;14.20;99.90;;;;;;5039143;28;20126;-67
2022/06/06 03:01:52;;;;;;;22.83;8.05;;;14.20;99.90;;;;;;5021145;28;20026;-68
2022/06/06 03:04:18;;;;;;;27.38;9.02;;;14.10;99.90;;;;;;5031972;28;20097;-67
2022/06/06 03:06:58;;;;;;;26.45;9.07;;;14.10;99.90;;;;;;5031843;28;20397;-68
2022/06/06 03:10:01;;;;;;;22.05;8.00;;;14.10;99.90;;;;;;5032296;28;20410;-67
2022/06/06 03:12:33;;;;;;;24.10;7.65;;;14.10;99.90;;;;;;5032070;28;20056;-68
2022/06/06 03:15:18;;;;;;;28.60;8.38;;;14.10;99.90;;;;;;5031940;28;20043;-68
2022/06/06 03:21:13;;;;;;;24.10;8.60;;;14.20;99.90;;;;;;5012217;28;20041;-67
2022/06/06 03:24:13;;;;;;;23.38;8.45;;;14.20;99.90;;;;;;5012523;28;20455;-66
2022/06/06 03:27:01;;;;;;;21.88;8.52;;;14.20;99.90;;;;;;5012270;28;20026;-67
2022/06/06 03:29:57;;;;;;;24.02;8.75;;;14.30;99.90;;;;;;5012829;28;20121;-68
2022/06/06 03:32:35;;;;;;;27.35;10.27;;;14.30;99.90;;;;;;5025927;28;20037;-67
2022/06/06 03:35:39;;;;;;;28.05;9.90;;;14.30;99.90;;;;;;5017632;28;20034;-68
2022/06/06 03:38:30;;;;;;;31.95;10.63;;;14.30;99.90;;;;;;5019579;28;20112;-68
2022/06/06 03:41:14;;;;;;;23.02;8.98;;;14.30;99.90;;;;;;5011029;28;20030;-67
2022/06/06 03:43:48;;;;;;;23.33;9.35;;;14.30;99.90;;;;;;5029422;28;20025;-69
2022/06/06 03:46:24;;;;;;;22.77;9.02;;;14.30;99.90;;;;;;5031241;28;20028;-67
2022/06/06 03:49:25;;;;;;;26.90;9.63;;;14.30;99.90;;;;;;5031064;28;20030;-67
2022/06/06 03:52:04;;;;;;;25.55;9.60;;;14.30;99.90;;;;;;5029970;28;20362;-68
2022/06/06 03:55:00;;;;;;;21.33;8.80;;;14.30;99.90;;;;;;5030977;28;20033;-68
2022/06/06 03:57:26;;;;;;;28.40;9.40;;;14.30;99.90;;;;;;5031199;28;20404;-70
2022/06/06 03:59:58;;;;;;;24.48;9.10;;;14.30;99.90;;;;;;5031780;28;20441;-69
2022/06/06 04:02:35;;;;;;;25.50;9.07;;;14.30;99.90;;;;;;5030772;28;20029;-68
2022/06/06 04:05:09;;;;;;;26.02;9.18;;;14.40;99.90;;;;;;5010646;28;20041;-69
2022/06/06 04:07:34;;;;;;;29.45;9.68;;;14.40;99.90;;;;;;5029619;28;20022;-67
2022/06/06 04:10:01;;;;;;;31.27;10.60;;;14.40;99.90;;;;;;5033466;28;20051;-67
2022/06/06 04:12:59;;;;;;;30.45;12.63;;;14.50;99.90;;;;;;5034362;28;20387;-66
2022/06/06 04:15:42;;;;;;;27.90;10.63;;;14.50;99.90;;;;;;5034488;28;20025;-69
2022/06/06 04:18:49;;;;;;;28.67;8.80;;;14.60;99.90;;;;;;5041474;28;20029;-67
2022/06/06 04:21:38;;;;;;;28.50;10.30;;;14.60;99.90;;;;;;5048279;28;20025;-67
2022/06/06 04:24:39;;;;;;;26.27;10.40;;;14.60;99.90;;;;;;5033721;28;20083;-67
2022/06/06 04:27:33;;;;;;;26.15;11.02;;;14.60;99.90;;;;;;5033613;28;20516;-68
2022/06/06 04:30:12;;;;;;;26.92;9.95;;;14.60;99.90;;;;;;5034513;28;20091;-68
2022/06/06 04:32:53;;;;;;;25.40;9.32;;;14.70;99.90;;;;;;5034567;28;20466;-69
2022/06/06 04:35:21;;;;;;;29.55;9.98;;;14.70;99.90;;;;;;5034498;28;20017;-70
2022/06/06 04:38:14;;;;;;;25.73;9.23;;;14.70;99.90;;;;;;5033373;28;20032;-69
2022/06/06 04:40:53;;;;;;;25.85;8.52;;;14.70;99.90;;;;;;5032966;28;20033;-69
2022/06/06 04:43:46;;;;;;;25.40;8.27;;;14.80;99.90;;;;;;5034050;28;20033;-69
2022/06/06 04:46:25;;;;;;;24.23;7.82;;;14.80;99.90;;;;;;5033915;28;20033;-67
2022/06/06 04:48:52;;;;;;;19.70;7.22;;;14.90;99.90;;;;;;5033797;28;20025;-69
2022/06/06 04:51:20;;;;;;;25.52;7.65;;;14.90;99.90;;;;;;5034356;28;20022;-67
2022/06/06 04:53:49;;;;;;;25.88;9.10;;;14.90;99.90;;;;;;5033292;28;20044;-67
2022/06/06 04:56:16;;;;;;;21.67;8.40;;;14.90;99.90;;;;;;5034477;28;20049;-68
2022/06/06 04:58:43;;;;;;;23.80;7.63;;;14.90;99.90;;;;;;5033460;28;20454;-68
2022/06/06 05:01:12;;;;;;;21.88;7.88;;;15.00;99.90;;;;;;5032233;28;20486;-69
2022/06/06 05:03:37;;;;;;;18.67;7.07;;;15.10;99.90;;;;;;5034352;28;20503;-68
2022/06/06 05:06:32;;;;;;;16.45;6.07;;;15.20;99.90;;;;;;5033631;28;20104;-68
2022/06/06 05:09:21;;;;;;;18.90;6.70;;;15.30;99.90;;;;;;5033722;28;20385;-67
2022/06/06 05:11:52;;;;;;;16.20;6.25;;;15.40;99.90;;;;;;5033490;28;20108;-68
2022/06/06 05:14:33;;;;;;;23.10;8.43;;;15.40;99.90;;;;;;5033979;28;20109;-66
2022/06/06 05:17:19;;;;;;;22.50;7.95;;;15.50;99.90;;;;;;5032072;28;20037;-67
2022/06/06 05:20:02;;;;;;;17.85;7.32;;;15.50;99.90;;;;;;5032933;28;20123;-66
2022/06/06 05:22:40;;;;;;;25.77;10.40;;;15.40;99.90;;;;;;5033198;28;20033;-67
2022/06/06 05:25:29;;;;;;;19.67;6.53;;;15.40;99.90;;;;;;5033632;28;20017;-66
2022/06/06 05:28:08;;;;;;;26.02;9.52;;;15.40;99.90;;;;;;5027858;28;20033;-67
2022/06/06 05:30:39;;;;;;;17.83;6.70;;;15.30;99.90;;;;;;5033260;28;20402;-67
2022/06/06 05:33:19;;;;;;;15.00;5.07;;;15.20;99.90;;;;;;5014450;28;20022;-67
2022/06/06 05:36:14;;;;;;;21.98;6.53;;;15.20;99.90;;;;;;5022181;28;20267;-67
2022/06/06 05:39:11;;;;;;;19.08;5.15;;;15.20;99.90;;;;;;5032762;28;20030;-67
2022/06/06 05:41:45;;;;;;;9.57;4.25;;;15.30;99.90;;;;;;5033434;28;20041;-69
2022/06/06 05:44:35;;;;;;;13.40;5.28;;;15.20;99.90;;;;;;5032932;28;20116;-69
2022/06/06 05:47:24;;;;;;;12.88;4.70;;;15.30;99.90;;;;;;5016489;28;20529;-67
2022/06/06 05:50:13;;;;;;;19.52;6.68;;;15.40;99.90;;;;;;5018958;28;20017;-67
2022/06/06 05:52:48;;;;;;;9.38;4.20;;;15.60;99.90;;;;;;5032175;28;20112;-68
2022/06/06 05:55:26;;;;;;;16.20;4.25;;;15.70;99.90;;;;;;5033124;28;20032;-67
2022/06/06 05:58:23;;;;;;;12.23;4.45;;;15.80;99.90;;;;;;5017620;28;20026;-67
2022/06/06 06:01:01;;;;;;;15.70;4.40;;;15.90;99.90;;;;;;5033241;28;20021;-69
2022/06/06 06:04:01;;;;;;;16.55;4.60;;;16.10;99.90;;;;;;5033119;28;20545;-70
2022/06/06 06:06:33;;;;;;;15.85;4.45;;;16.10;99.90;;;;;;5031237;28;20846;-70
2022/06/06 06:09:15;;;;;;;16.25;3.40;;;16.10;99.90;;;;;;5031720;28;20026;-69
2022/06/06 06:12:12;;;;;;;14.07;4.32;;;16.60;99.90;;;;;;5031898;28;20040;-67
2022/06/06 06:14:50;;;;;;;11.85;3.90;;;17.30;99.90;;;;;;5032798;28;20029;-69
2022/06/06 06:17:23;;;;;;;11.75;3.72;;;17.60;99.90;;;;;;5032156;28;20017;-68
2022/06/06 06:19:59;;;;;;;11.00;3.42;;;17.40;99.90;;;;;;5032742;28;20063;-67
2022/06/06 06:22:27;;;;;;;15.45;4.07;;;17.30;99.90;;;;;;5032358;28;20075;-67
2022/06/06 06:24:59;;;;;;;11.02;3.60;;;17.20;99.90;;;;;;5032176;28;20493;-67
2022/06/06 06:27:26;;;;;;;10.50;3.15;;;17.10;99.90;;;;;;5032561;28;20032;-67
2022/06/06 06:29:52;;;;;;;15.57;3.90;;;17.00;99.90;;;;;;5029955;28;20049;-67
2022/06/06 06:32:32;;;;;;;10.45;3.80;;;17.00;99.90;;;;;;5032157;28;20435;-67
2022/06/06 06:35:02;;;;;;;12.35;3.75;;;17.00;99.90;;;;;;5032786;28;20066;-70
2022/06/06 06:37:55;;;;;;;16.38;3.78;;;17.10;99.90;;;;;;5031767;28;20033;-67
2022/06/06 06:40:30;;;;;;;11.88;4.18;;;17.00;99.90;;;;;;5032087;28;20032;-67
2022/06/06 06:43:15;;;;;;;10.45;3.25;;;17.10;99.90;;;;;;5032507;28;20029;-69
2022/06/06 06:45:51;;;;;;;8.77;3.05;;;17.30;99.90;;;;;;5031864;28;20527;-68
2022/06/06 06:48:24;;;;;;;10.32;3.00;;;17.80;99.90;;;;;;5031931;28;20104;-70
2022/06/06 06:51:00;;;;;;;8.48;2.92;;;18.60;99.90;;;;;;5017042;28;20022;-67
2022/06/06 06:53:54;;;;;;;10.45;2.85;;;19.50;99.90;;;;;;5032401;28;20028;-67
2022/06/06 06:56:44;;;;;;;12.45;3.17;;;20.20;99.90;;;;;;5031982;28;20467;-68
2022/06/06 06:59:31;;;;;;;13.38;2.90;;;20.00;99.90;;;;;;5030350;28;20216;-70
2022/06/06 07:08:48;;;;;;;10.73;3.35;;;19.10;99.90;;;;;;5017766;28;20041;-67
2022/06/06 07:11:20;;;;;;;11.15;2.65;;;19.40;99.90;;;;;;5031622;28;20024;-67
2022/06/06 07:14:01;;;;;;;7.72;3.15;;;19.30;99.90;;;;;;5031486;28;20071;-67
2022/06/06 07:16:33;;;;;;;7.68;2.55;;;19.00;99.90;;;;;;5031652;28;20044;-69
2022/06/06 07:19:13;;;;;;;8.80;2.60;;;18.70;99.90;;;;;;5031140;28;20017;-67
2022/06/06 07:21:40;;;;;;;12.60;2.95;;;18.30;99.90;;;;;;5047414;28;20036;-68
2022/06/06 07:24:11;;;;;;;10.43;2.75;;;17.90;99.90;;;;;;5046251;28;20037;-68
2022/06/06 07:26:43;;;;;;;10.30;2.28;;;17.90;99.90;;;;;;5031151;28;20021;-68
2022/06/06 07:29:15;;;;;;;4.63;1.92;;;18.10;99.90;;;;;;5012333;28;20121;-65
2022/06/06 07:31:47;;;;;;;;;;;18.30;99.90;;;;;;5030719;28;20037;-69
2022/06/06 07:34:30;;;;;;;8.20;1.70;;;18.60;99.90;;;;;;5031072;28;19905;-68
2022/06/06 07:37:14;;;;;;;7.57;2.15;;;19.10;99.90;;;;;;5031005;28;20033;-67
2022/06/06 07:39:58;;;;;;;6.22;1.83;;;19.40;99.90;;;;;;5031637;28;20025;-68
2022/06/06 07:42:42;;;;;;;8.82;1.98;;;19.30;99.90;;;;;;5033297;28;20033;-69
2022/06/06 07:45:30;;;;;;;6.70;2.03;;;18.90;99.90;;;;;;5036060;28;20091;-67
2022/06/06 07:48:07;;;;;;;8.77;2.17;;;18.40;99.90;;;;;;5026238;28;20025;-67
2022/06/06 07:50:37;;;;;;;9.13;1.90;;;18.00;99.90;;;;;;5035017;28;20022;-66
2022/06/06 07:53:12;;;;;;;6.82;2.00;;;18.30;99.90;;;;;;5035132;28;20424;-66
2022/06/06 07:55:54;;;;;;;10.30;2.08;;;18.80;99.90;;;;;;5035039;28;20095;-69
2022/06/06 07:58:41;;;;;;;8.98;1.65;;;19.00;99.90;;;;;;5034605;28;20017;-66
2022/06/06 08:01:19;;;;;;;12.05;1.88;;;18.80;99.90;;;;;;5027440;28;20025;-69
2022/06/06 08:03:58;;;;;;;6.25;1.58;;;18.80;99.90;;;;;;5034213;28;20029;-67
2022/06/06 08:06:36;;;;;;;9.02;1.48;;;18.90;99.90;;;;;;5034488;28;20021;-67
2022/06/06 08:09:30;;;;;;;8.70;1.85;;;19.20;99.90;;;;;;5034589;28;20163;-66
2022/06/06 08:12:09;;;;;;;4.70;2.10;;;19.80;99.90;;;;;;5015211;28;20029;-66
2022/06/06 08:14:58;;;;;;;6.03;1.50;;;20.20;99.90;;;;;;5028008;28;20025;-67
2022/06/06 08:17:32;;;;;;;7.82;2.08;;;19.60;99.90;;;;;;5034301;28;20018;-66
2022/06/06 08:20:16;;;;;;;8.40;1.70;;;19.40;99.90;;;;;;5033703;28;20021;-68
2022/06/06 08:22:44;;;;;;;5.78;1.70;;;19.60;99.90;;;;;;5033424;28;20037;-66
2022/06/06 08:25:14;;;;;;;16.00;2.05;;;19.80;99.90;;;;;;5034325;28;20021;-67
2022/06/06 08:27:46;;;;;;;9.98;2.20;;;20.10;99.90;;;;;;5034082;28;20025;-69
2022/06/06 08:30:12;;;;;;;6.97;1.65;;;20.50;99.90;;;;;;5034238;28;20050;-68
2022/06/06 08:32:38;;;;;;;7.55;1.60;;;20.60;99.90;;;;;;5034598;28;20026;-67
2022/06/06 08:35:04;;;;;;;7.88;1.83;;;20.70;99.90;;;;;;5033727;28;20132;-68
2022/06/06 08:37:47;;;;;;;4.20;1.15;;;20.90;99.90;;;;;;5034512;28;20358;-67
2022/06/06 08:40:22;;;;;;;4.47;1.40;;;20.80;99.90;;;;;;5033397;28;20017;-68
2022/06/06 08:42:50;;;;;;;3.60;1.63;;;21.20;99.90;;;;;;5034413;28;20432;-69
2022/06/06 08:45:16;;;;;;;8.18;1.50;;;21.70;99.90;;;;;;5034311;28;20079;-67
2022/06/06 08:48:02;;;;;;;8.50;1.67;;;22.40;99.90;;;;;;5034932;28;20021;-66
2022/06/06 08:50:45;;;;;;;7.45;1.70;;;22.20;99.90;;;;;;5034559;28;20060;-66
2022/06/06 08:53:43;;;;;;;7.63;1.80;;;21.80;99.90;;;;;;5032591;28;20024;-66
2022/06/06 08:56:30;;;;;;;5.00;1.70;;;21.70;99.90;;;;;;5030538;28;20030;-69
2022/06/06 08:59:27;;;;;;;3.58;1.50;;;21.90;99.90;;;;;;5034286;28;20057;-66
2022/06/06 09:02:34;;;;;;;5.93;2.15;;;22.00;99.90;;;;;;5020923;28;20029;-67
2022/06/06 09:05:20;;;;;;;5.10;1.63;;;22.30;99.90;;;;;;5032576;28;20029;-67
2022/06/06 09:08:07;;;;;;;9.13;1.83;;;22.20;99.90;;;;;;5034334;28;20026;-68
2022/06/06 09:10:44;;;;;;;6.18;1.73;;;21.90;99.90;;;;;;5031745;28;20034;-66
2022/06/06 09:13:31;;;;;;;9.25;2.53;;;21.60;99.90;;;;;;5033368;28;20776;-67
2022/06/06 09:16:21;;;;;;;10.25;1.90;;;21.10;99.90;;;;;;5033930;28;20166;-66
2022/06/06 09:19:07;;;;;;;12.15;2.78;;;21.00;99.90;;;;;;5031468;28;20021;-66
2022/06/06 09:21:56;;;;;;;3.80;1.70;;;20.70;99.90;;;;;;5032097;28;20029;-66
2022/06/06 09:24:53;;;;;;;7.15;2.00;;;20.50;99.90;;;;;;5021845;28;20038;-67
2022/06/06 09:27:55;;;;;;;5.70;1.80;;;20.00;99.90;;;;;;5014169;28;20022;-67
2022/06/06 09:31:01;;;;;;;9.98;1.83;;;19.70;99.90;;;;;;5027154;28;20045;-67
2022/06/06 09:33:53;;;;;;;6.88;2.03;;;19.40;99.90;;;;;;5023343;28;20370;-67
2022/06/06 09:36:42;;;;;;;13.90;2.60;;;19.20;99.90;;;;;;5032117;28;20129;-67
2022/06/06 09:39:14;;;;;;;7.30;1.90;;;19.20;99.90;;;;;;5029911;28;20029;-68
2022/06/06 09:41:59;;;;;;;13.85;2.30;;;19.40;99.90;;;;;;5025960;28;20021;-67
2022/06/06 09:44:43;;;;;;;9.68;2.28;;;19.70;99.90;;;;;;5032296;28;20073;-67
2022/06/06 09:47:57;;;;;;;8.30;1.77;;;19.70;99.90;;;;;;5033519;28;20033;-67
2022/06/06 09:50:46;;;;;;;9.70;2.30;;;19.90;99.90;;;;;;5011465;28;20034;-67
2022/06/06 09:53:39;;;;;;;9.40;2.08;;;19.80;99.90;;;;;;5030096;28;20033;-67
2022/06/06 09:59:29;;;;;;;10.75;2.50;;;19.80;99.90;;;;;;5031809;28;20029;-66
2022/06/06 10:02:19;;;;;;;9.13;2.47;;;19.70;99.90;;;;;;5031037;28;20114;-69
2022/06/06 10:05:00;;;;;;;11.18;2.45;;;19.60;99.90;;;;;;5030171;28;20061;-67
2022/06/06 10:07:53;;;;;;;12.68;2.88;;;19.50;99.90;;;;;;5032628;28;20025;-70
2022/06/06 10:10:37;;;;;;;14.48;3.13;;;19.30;99.90;;;;;;5032083;28;20029;-69
2022/06/06 10:13:33;;;;;;;12.02;3.70;;;19.20;99.90;;;;;;5032989;28;20033;-71
2022/06/06 10:16:22;;;;;;;6.68;2.25;;;19.20;99.90;;;;;;5010886;28;20703;-69
2022/06/06 10:19:21;;;;;;;9.32;2.92;;;19.00;99.90;;;;;;5002280;28;20041;-69
2022/06/06 10:22:32;;;;;;;12.18;2.95;;;18.90;99.90;;;;;;5025534;28;20026;-70
2022/06/06 10:25:21;;;;;;;12.07;2.90;;;18.60;99.90;;;;;;5039488;28;20032;-69
2022/06/06 10:28:04;;;;;;;9.82;2.85;;;18.30;99.90;;;;;;5051557;28;20496;-71
2022/06/06 10:31:05;;;;;;;11.02;3.60;;;18.30;99.90;;;;;;5034383;28;20057;-70
2022/06/06 10:33:58;;;;;;;16.77;4.88;;;18.30;99.90;;;;;;5027012;28;20045;-68
2022/06/06 10:36:52;;;;;;;9.23;2.60;;;18.20;99.90;;;;;;5014832;28;20069;-68
2022/06/06 10:39:45;;;;;;;10.48;3.78;;;17.90;99.90;;;;;;5032900;28;20096;-67
2022/06/06 10:42:48;;;;;;;12.45;4.47;;;17.50;99.90;;;;;;5031849;28;20029;-66
2022/06/06 10:45:24;;;;;;;;;;;17.00;99.90;;;;;;5037543;28;20029;-66
2022/06/06 10:47:49;;;;;;;12.40;4.65;;;16.60;99.90;;;;;;5040927;28;19904;-67
2022/06/06 10:51:36;;;;;;;18.83;5.25;;;16.30;99.90;;;;;;5041502;28;20487;-68
2022/06/06 10:54:00;;;;;;;16.95;6.13;;;16.00;99.90;;;;;;5038609;28;20030;-65
2022/06/06 10:56:46;;;;;;;11.77;5.22;;;15.80;99.90;;;;;;5041265;28;20029;-65
2022/06/06 10:59:24;;;;;;;15.60;6.40;;;15.80;99.90;;;;;;5039936;28;20429;-68
2022/06/06 11:02:22;;;;;;;18.98;6.80;;;15.90;99.90;;;;;;5037366;28;20068;-67
2022/06/06 11:05:12;;;;;;;15.73;6.70;;;16.10;99.90;;;;;;5040280;28;20034;-66
2022/06/06 11:07:58;;;;;;;13.13;4.53;;;16.10;99.90;;;;;;5038522;28;20017;-67
2022/06/06 11:10:36;;;;;;;12.20;4.40;;;16.40;99.90;;;;;;5032111;28;20040;-67
2022/06/06 11:13:16;;;;;;;12.85;4.93;;;16.60;99.90;;;;;;5035096;28;20026;-66
2022/06/06 11:16:09;;;;;;;14.98;4.55;;;16.70;99.90;;;;;;5034800;28;20029;-66
2022/06/06 11:19:17;;;;;;;15.65;6.35;;;16.60;99.90;;;;;;5038508;28;20036;-67
2022/06/06 11:22:13;;;;;;;18.80;5.82;;;16.60;99.90;;;;;;5034421;28;20044;-68
2022/06/06 11:24:52;;;;;;;16.15;5.55;;;16.50;99.90;;;;;;5045449;28;20059;-67
2022/06/06 11:27:30;;;;;;;14.48;5.20;;;16.60;99.90;;;;;;5040839;28;20109;-65
2022/06/06 11:30:02;;;;;;;16.25;4.65;;;16.60;99.90;;;;;;5041657;28;20045;-68
2022/06/06 11:32:46;;;;;;;14.30;4.65;;;16.80;99.90;;;;;;5041262;28;20101;-68
2022/06/06 11:35:40;;;;;;;14.38;5.32;;;16.80;99.90;;;;;;5040455;28;20025;-66
2022/06/06 11:38:41;;;;;;;13.98;4.93;;;16.80;99.90;;;;;;5044077;28;20449;-67
2022/06/06 11:42:01;;;;;;;12.00;5.10;;;16.70;99.90;;;;;;5041012;28;20408;-66
2022/06/06 11:44:45;;;;;;;11.32;4.28;;;16.90;99.90;;;;;;5039428;28;20088;-66
2022/06/06 11:47:33;;;;;;;15.48;4.20;;;17.20;99.90;;;;;;5043263;28;20495;-66
2022/06/06 11:50:23;;;;;;;11.43;4.50;;;17.30;99.90;;;;;;5041637;28;20318;-66
2022/06/06 11:53:04;;;;;;;10.80;3.38;;;17.30;99.90;;;;;;5041737;28;20021;-68
2022/06/06 11:55:33;;;;;;;12.65;4.57;;;17.10;99.90;;;;;;5044973;28;20013;-66
2022/06/06 11:58:33;;;;;;;10.50;3.28;;;16.90;99.90;;;;;;5037602;28;20049;-67
2022/06/06 12:01:12;;;;;;;13.23;4.00;;;16.80;99.90;;;;;;5040946;28;20026;-66
2022/06/06 12:04:05;;;;;;;12.90;5.50;;;16.60;99.90;;;;;;5039554;28;20476;-66
2022/06/06 12:06:53;;;;;;;16.05;5.78;;;16.50;99.90;;;;;;5039843;28;20026;-68
2022/06/06 12:09:40;;;;;;;12.15;4.32;;;16.40;99.90;;;;;;5025401;28;20014;-67
2022/06/06 12:12:08;;;;;;;10.65;4.15;;;16.20;99.90;;;;;;5022304;28;20438;-68
2022/06/06 12:15:00;;;;;;;14.55;4.30;;;16.00;99.90;;;;;;5020159;28;20100;-67
2022/06/06 12:17:51;;;;;;;12.67;4.73;;;15.90;99.90;;;;;;5016324;28;20018;-68
2022/06/06 12:20:26;;;;;;;11.13;4.05;;;15.80;99.90;;;;;;5034883;28;20115;-69
2022/06/06 12:23:13;;;;;;;10.93;4.47;;;15.70;99.90;;;;;;5032149;28;20143;-70
2022/06/06 12:26:16;;;;;;;12.70;4.78;;;15.80;99.90;;;;;;5021270;28;20026;-65
2022/06/06 12:29:00;;;;;;;6.63;3.28;;;15.80;99.90;;;;;;5014039;28;20041;-66
2022/06/06 12:31:53;;;;;;;9.77;3.15;;;15.80;99.90;;;;;;5021153;28;20033;-67
2022/06/06 12:34:24;;;;;;;7.15;2.60;;;15.70;99.90;;;;;;5032043;28;20026;-68
2022/06/06 12:37:35;;;;;;;10.65;2.85;;;15.70;99.90;;;;;;5014217;28;20026;-67
2022/06/06 12:40:30;;;;;;;9.82;2.85;;;15.70;99.90;;;;;;5020888;28;20017;-68
2022/06/06 12:43:25;;;;;;;8.40;2.40;;;15.70;99.90;;;;;;5030003;28;20040;-68
2022/06/06 12:46:00;;;;;;;12.00;3.35;;;15.90;99.90;;;;;;5033033;28;20014;-68
2022/06/06 12:48:50;;;;;;;8.55;2.08;;;15.90;99.90;;;;;;5027561;28;20369;-71
2022/06/06 12:51:25;;;;;;;4.13;1.73;;;15.80;99.90;;;;;;5032702;28;20018;-67
2022/06/06 12:57:51;;;;;;;6.75;1.92;;;15.60;99.90;;;;;;5015174;28;20041;-67
2022/06/06 13:03:38;;;;;;;4.25;1.73;;;15.60;99.90;;;;;;5019960;28;20076;-67
2022/06/06 13:06:26;;;;;;;3.95;1.25;;;15.70;99.90;;;;;;5033459;28;20096;-70
2022/06/06 13:09:17;;;;;;;5.55;2.00;;;15.70;99.90;;;;;;5030333;28;20628;-66
2022/06/06 13:12:02;;;;;;;4.20;1.70;;;15.70;99.90;;;;;;5032810;28;20039;-68
2022/06/06 13:14:43;;;;;;;5.50;1.35;;;15.60;99.90;;;;;;5034201;28;20053;-67
2022/06/06 13:17:24;;;;;;;6.47;2.03;;;15.50;99.90;;;;;;5032082;28;20029;-67
2022/06/06 13:20:18;;;;;;;5.63;1.90;;;15.30;99.90;;;;;;5033704;28;20465;-66
2022/06/06 13:22:59;;;;;;;8.02;1.95;;;15.30;99.90;;;;;;5032859;28;20116;-68
2022/06/06 13:25:37;;;;;;;5.35;1.55;;;15.30;99.90;;;;;;5034018;28;20532;-68
2022/06/06 13:28:31;;;;;;;6.03;1.85;;;15.20;99.90;;;;;;5043922;28;20032;-66
2022/06/06 13:31:17;;;;;;;6.10;1.77;;;15.10;99.90;;;;;;5014378;28;20470;-67
2022/06/06 13:33:57;;;;;;;3.65;1.17;;;15.00;99.90;;;;;;5013972;28;20029;-67
2022/06/06 13:36:31;;;;;;;6.22;1.83;;;14.90;99.90;;;;;;5014128;28;20025;-67
2022/06/06 13:39:25;;;;;;;4.05;1.50;;;14.70;99.90;;;;;;5013642;28;20148;-67
2022/06/06 13:42:18;;;;;;;4.88;2.05;;;14.60;99.90;;;;;;5014157;28;20091;-66
2022/06/06 13:44:44;;;;;;;8.48;1.85;;;14.50;99.90;;;;;;5021952;28;20037;-67
2022/06/06 13:47:43;;;;;;;6.35;1.60;;;14.50;99.90;;;;;;5017985;28;20018;-67
2022/06/06 13:50:14;;;;;;;5.40;2.00;;;14.40;99.90;;;;;;5022198;28;20037;-67
2022/06/06 13:52:54;;;;;;;6.50;2.00;;;14.40;99.90;;;;;;5013825;28;20030;-67
2022/06/06 13:55:37;;;;;;;8.25;1.70;;;14.40;99.90;;;;;;5013517;28;20032;-67
2022/06/06 13:58:24;;;;;;;10.90;2.13;;;14.50;99.90;;;;;;5019476;28;20120;-67
2022/06/06 14:01:15;;;;;;;4.47;1.45;;;14.50;99.90;;;;;;5025116;28;20030;-69
2022/06/06 14:03:50;;;;;;;4.95;2.10;;;14.50;99.90;;;;;;5015432;28;20496;-69
2022/06/06 14:06:39;;;;;;;4.10;1.58;;;14.50;99.90;;;;;;5013362;28;20521;-68
2022/06/06 14:09:05;;;;;;;4.35;1.80;;;14.50;99.90;;;;;;5013345;28;20030;-69
2022/06/06 14:12:02;;;;;;;9.18;2.42;;;14.50;99.90;;;;;;5013778;28;20092;-66